sensor_id;sensor_type;location;lat;lon;timestamp;pressure;altitude;pressure_sealevel;temperature;humidity
75640;BME280;64233;51.486;6.332;2023-07-13T00:01:04;101161.22;;;14.71;100.00
75640;BME280;64233;51.486;6.332;2023-07-13T00:03:29;101170.66;;;14.78;100.00
75640;BME280;64233;51.486;6.332;2023-07-13T00:06:00;101167.97;;;14.78;100.00
75640;BME280;64233;51.486;6.332;2023-07-13T00:08:30;101166.91;;;14.74;100.00
75640;BME280;64233;51.486;6.332;2023-07-13T00:10:57;101163.06;;;14.60;100.00
75640;BME280;64233;51.486;6.332;2023-07-13T00:13:23;101168.22;;;14.67;100.00
75640;BME280;64233;51.486;6.332;2023-07-13T00:15:48;101163.66;;;14.62;100.00
75640;BME280;64233;51.486;6.332;2023-07-13T00:18:14;101171.16;;;14.50;100.00
75640;BME280;64233;51.486;6.332;2023-07-13T00:20:39;101176.00;;;14.42;100.00
75640;BME280;64233;51.486;6.332;2023-07-13T00:23:06;101174.09;;;14.33;100.00
75640;BME280;64233;51.486;6.332;2023-07-13T00:25:32;101176.75;;;14.22;100.00
75640;BME280;64233;51.486;6.332;2023-07-13T00:27:57;101175.63;;;14.08;100.00
75640;BME280;64233;51.486;6.332;2023-07-13T00:30:23;101182.91;;;14.02;100.00
75640;BME280;64233;51.486;6.332;2023-07-13T00:32:48;101183.19;;;14.01;100.00
75640;BME280;64233;51.486;6.332;2023-07-13T00:35:14;101183.69;;;13.98;100.00
75640;BME280;64233;51.486;6.332;2023-07-13T00:37:40;101178.00;;;13.94;100.00
75640;BME280;64233;51.486;6.332;2023-07-13T00:40:06;101176.94;;;13.95;100.00
75640;BME280;64233;51.486;6.332;2023-07-13T00:42:32;101179.06;;;13.93;100.00
75640;BME280;64233;51.486;6.332;2023-07-13T00:47:39;101183.38;;;13.89;100.00
75640;BME280;64233;51.486;6.332;2023-07-13T00:50:07;101184.44;;;13.83;100.00
75640;BME280;64233;51.486;6.332;2023-07-13T00:52:35;101188.19;;;13.76;100.00
75640;BME280;64233;51.486;6.332;2023-07-13T00:55:01;101181.13;;;13.70;100.00
75640;BME280;64233;51.486;6.332;2023-07-13T00:57:28;101177.13;;;13.78;100.00
75640;BME280;64233;51.486;6.332;2023-07-13T00:59:57;101181.13;;;13.70;100.00
75640;BME280;64233;51.486;6.332;2023-07-13T01:02:24;101179.53;;;13.74;100.00
75640;BME280;64233;51.486;6.332;2023-07-13T01:04:49;101179.03;;;13.83;100.00
75640;BME280;64233;51.486;6.332;2023-07-13T01:07:15;101174.97;;;13.80;100.00
75640;BME280;64233;51.486;6.332;2023-07-13T01:09:40;101177.41;;;13.82;100.00
75640;BME280;64233;51.486;6.332;2023-07-13T01:12:06;101174.97;;;13.80;100.00
75640;BME280;64233;51.486;6.332;2023-07-13T01:14:32;101176.88;;;13.85;100.00
75640;BME280;64233;51.486;6.332;2023-07-13T01:16:58;101193.31;;;13.83;100.00
75640;BME280;64233;51.486;6.332;2023-07-13T01:19:33;101186.03;;;13.78;100.00
75640;BME280;64233;51.486;6.332;2023-07-13T01:22:06;101187.41;;;13.81;100.00
75640;BME280;64233;51.486;6.332;2023-07-13T01:24:34;101180.59;;;13.68;100.00
75640;BME280;64233;51.486;6.332;2023-07-13T01:27:00;101180.84;;;13.67;100.00
75640;BME280;64233;51.486;6.332;2023-07-13T01:29:25;101181.97;;;13.71;100.00
75640;BME280;64233;51.486;6.332;2023-07-13T01:31:50;101174.94;;;13.75;100.00
75640;BME280;64233;51.486;6.332;2023-07-13T01:34:15;101182.47;;;13.68;100.00
75640;BME280;64233;51.486;6.332;2023-07-13T01:36:41;101187.66;;;13.80;100.00
75640;BME280;64233;51.486;6.332;2023-07-13T01:39:06;101186.88;;;13.84;100.00
75640;BME280;64233;51.486;6.332;2023-07-13T01:41:31;101180.63;;;13.78;100.00
75640;BME280;64233;51.486;6.332;2023-07-13T01:43:57;101178.50;;;13.86;100.00
75640;BME280;64233;51.486;6.332;2023-07-13T01:46:22;101181.69;;;13.77;100.00
75640;BME280;64233;51.486;6.332;2023-07-13T01:48:47;101177.63;;;13.70;100.00
75640;BME280;64233;51.486;6.332;2023-07-13T01:51:12;101176.78;;;13.64;100.00
75640;BME280;64233;51.486;6.332;2023-07-13T01:53:38;101177.59;;;13.65;100.00
75640;BME280;64233;51.486;6.332;2023-07-13T01:56:04;101187.31;;;13.66;100.00
75640;BME280;64233;51.486;6.332;2023-07-13T01:58:29;101180.78;;;13.56;100.00
75640;BME280;64233;51.486;6.332;2023-07-13T02:00:57;101181.25;;;13.43;100.00
75640;BME280;64233;51.486;6.332;2023-07-13T02:03:22;101189.28;;;13.38;100.00
75640;BME280;64233;51.486;6.332;2023-07-13T02:05:48;101176.06;;;13.36;100.00
75640;BME280;64233;51.486;6.332;2023-07-13T02:08:13;101177.22;;;13.46;100.00
75640;BME280;64233;51.486;6.332;2023-07-13T02:10:38;101179.66;;;13.47;100.00
75640;BME280;64233;51.486;6.332;2023-07-13T02:13:05;101178.25;;;13.39;100.00
75640;BME280;64233;51.486;6.332;2023-07-13T02:15:31;101188.75;;;13.41;100.00
75640;BME280;64233;51.486;6.332;2023-07-13T02:17:56;101177.22;;;13.51;100.00
75640;BME280;64233;51.486;6.332;2023-07-13T02:20:23;101184.25;;;13.52;100.00
75640;BME280;64233;51.486;6.332;2023-07-13T02:22:49;101185.91;;;13.58;100.00
75640;BME280;64233;51.486;6.332;2023-07-13T02:25:14;101180.00;;;13.61;100.00
75640;BME280;64233;51.486;6.332;2023-07-13T02:27:39;101178.66;;;13.64;100.00
75640;BME280;64233;51.486;6.332;2023-07-13T02:30:05;101177.06;;;13.68;100.00
75640;BME280;64233;51.486;6.332;2023-07-13T02:32:31;101182.66;;;13.56;100.00
75640;BME280;64233;51.486;6.332;2023-07-13T02:34:57;101186.50;;;13.65;100.00
75640;BME280;64233;51.486;6.332;2023-07-13T02:37:22;101188.59;;;13.58;100.00
75640;BME280;64233;51.486;6.332;2023-07-13T02:39:47;101191.28;;;13.53;100.00
75640;BME280;64233;51.486;6.332;2023-07-13T02:42:13;101189.16;;;13.60;100.00
75640;BME280;64233;51.486;6.332;2023-07-13T02:44:38;101192.41;;;13.62;100.00
75640;BME280;64233;51.486;6.332;2023-07-13T02:47:03;101201.63;;;13.71;100.00
75640;BME280;64233;51.486;6.332;2023-07-13T02:49:29;101195.72;;;13.74;100.00
75640;BME280;64233;51.486;6.332;2023-07-13T02:51:54;101198.44;;;13.80;100.00
75640;BME280;64233;51.486;6.332;2023-07-13T02:54:19;101195.44;;;13.71;100.00
75640;BME280;64233;51.486;6.332;2023-07-13T02:56:44;101191.38;;;13.68;100.00
75640;BME280;64233;51.486;6.332;2023-07-13T02:59:10;101202.69;;;13.65;100.00
75640;BME280;64233;51.486;6.332;2023-07-13T03:01:36;101209.72;;;13.71;100.00
75640;BME280;64233;51.486;6.332;2023-07-13T03:04:01;101213.50;;;13.65;100.00
75640;BME280;64233;51.486;6.332;2023-07-13T03:06:26;101205.06;;;13.56;100.00
75640;BME280;64233;51.486;6.332;2023-07-13T03:08:55;101209.31;;;13.47;100.00
75640;BME280;64233;51.486;6.332;2023-07-13T03:11:21;101219.88;;;13.54;100.00
75640;BME280;64233;51.486;6.332;2023-07-13T03:13:46;101209.59;;;13.46;100.00
75640;BME280;64233;51.486;6.332;2023-07-13T03:16:12;101208.72;;;13.40;100.00
75640;BME280;64233;51.486;6.332;2023-07-13T03:18:39;101212.41;;;13.34;100.00
75640;BME280;64233;51.486;6.332;2023-07-13T03:21:05;101217.09;;;13.38;100.00
75640;BME280;64233;51.486;6.332;2023-07-13T03:23:31;101207.53;;;13.31;100.00
75640;BME280;64233;51.486;6.332;2023-07-13T03:28:28;101214.88;;;13.35;100.00
75640;BME280;64233;51.486;6.332;2023-07-13T03:31:05;101217.25;;;13.32;100.00
75640;BME280;64233;51.486;6.332;2023-07-13T03:33:31;101213.56;;;13.38;100.00
75640;BME280;64233;51.486;6.332;2023-07-13T03:35:56;101214.66;;;13.37;100.00
75640;BME280;64233;51.486;6.332;2023-07-13T03:38:22;101214.84;;;13.30;100.00
75640;BME280;64233;51.486;6.332;2023-07-13T03:40:47;101215.34;;;13.27;100.00
75640;BME280;64233;51.486;6.332;2023-07-13T03:43:12;101227.25;;;13.31;100.00
75640;BME280;64233;51.486;6.332;2023-07-13T03:45:38;101222.41;;;13.33;100.00
75640;BME280;64233;51.486;6.332;2023-07-13T03:48:03;101239.19;;;13.40;100.00
75640;BME280;64233;51.486;6.332;2023-07-13T03:50:30;101239.03;;;13.25;100.00
75640;BME280;64233;51.486;6.332;2023-07-13T03:52:56;101242.00;;;13.23;100.00
75640;BME280;64233;51.486;6.332;2023-07-13T03:55:22;101243.91;;;13.28;100.00
75640;BME280;64233;51.486;6.332;2023-07-13T03:57:47;101236.66;;;13.29;100.00
75640;BME280;64233;51.486;6.332;2023-07-13T04:00:13;101243.00;;;13.45;100.00
75640;BME280;64233;51.486;6.332;2023-07-13T04:02:39;101243.91;;;13.55;100.00
75640;BME280;64233;51.486;6.332;2023-07-13T04:05:04;101238.53;;;13.60;100.00
75640;BME280;64233;51.486;6.332;2023-07-13T04:07:30;101231.75;;;13.53;100.00
75640;BME280;64233;51.486;6.332;2023-07-13T04:09:55;101236.41;;;13.63;100.00
75640;BME280;64233;51.486;6.332;2023-07-13T04:12:20;101240.16;;;13.62;100.00
75640;BME280;64233;51.486;6.332;2023-07-13T04:14:46;101241.53;;;13.69;100.00
75640;BME280;64233;51.486;6.332;2023-07-13T04:17:11;101243.38;;;13.58;100.00
75640;BME280;64233;51.486;6.332;2023-07-13T04:19:36;101247.09;;;13.52;100.00
75640;BME280;64233;51.486;6.332;2023-07-13T04:22:01;101248.47;;;13.55;100.00
75640;BME280;64233;51.486;6.332;2023-07-13T04:24:27;101253.06;;;13.54;100.00
75640;BME280;64233;51.486;6.332;2023-07-13T04:26:52;101254.97;;;13.59;100.00
75640;BME280;64233;51.486;6.332;2023-07-13T04:29:17;101253.97;;;13.70;100.00
75640;BME280;64233;51.486;6.332;2023-07-13T04:31:43;101251.25;;;13.65;100.00
75640;BME280;64233;51.486;6.332;2023-07-13T04:34:08;101258.78;;;13.63;100.00
75640;BME280;64233;51.486;6.332;2023-07-13T04:36:33;101258.94;;;13.89;100.00
75640;BME280;64233;51.486;6.332;2023-07-13T04:39:02;101266.56;;;14.02;100.00
75640;BME280;64233;51.486;6.332;2023-07-13T04:41:28;101269.31;;;14.12;100.00
75640;BME280;64233;51.486;6.332;2023-07-13T04:43:53;101266.63;;;14.12;100.00
75640;BME280;64233;51.486;6.332;2023-07-13T04:46:18;101266.41;;;14.24;100.00
75640;BME280;64233;51.486;6.332;2023-07-13T04:48:44;101263.69;;;14.24;100.00
75640;BME280;64233;51.486;6.332;2023-07-13T04:51:10;101261.53;;;14.16;100.00
75640;BME280;64233;51.486;6.332;2023-07-13T04:53:35;101265.09;;;14.37;100.00
75640;BME280;64233;51.486;6.332;2023-07-13T04:56:02;101262.34;;;14.27;100.00
75640;BME280;64233;51.486;6.332;2023-07-13T04:58:27;101265.59;;;14.24;100.00
75640;BME280;64233;51.486;6.332;2023-07-13T05:00:53;101272.66;;;14.35;100.00
75640;BME280;64233;51.486;6.332;2023-07-13T05:03:24;101269.41;;;14.28;100.00
75640;BME280;64233;51.486;6.332;2023-07-13T05:05:57;101273.66;;;14.19;100.00
75640;BME280;64233;51.486;6.332;2023-07-13T05:08:23;101285.03;;;14.26;100.00
75640;BME280;64233;51.486;6.332;2023-07-13T05:10:50;101276.69;;;14.27;100.00
75640;BME280;64233;51.486;6.332;2023-07-13T05:13:15;101278.59;;;14.37;100.00
75640;BME280;64233;51.486;6.332;2023-07-13T05:15:40;101281.63;;;14.46;100.00
75640;BME280;64233;51.486;6.332;2023-07-13T05:18:05;101279.47;;;14.48;100.00
75640;BME280;64233;51.486;6.332;2023-07-13T05:20:31;101285.72;;;14.59;100.00
75640;BME280;64233;51.486;6.332;2023-07-13T05:22:56;101283.28;;;14.57;100.00
75640;BME280;64233;51.486;6.332;2023-07-13T05:25:21;101295.50;;;14.75;100.00
75640;BME280;64233;51.486;6.332;2023-07-13T05:27:47;101295.78;;;14.69;100.00
75640;BME280;64233;51.486;6.332;2023-07-13T05:30:13;101302.00;;;14.69;100.00
75640;BME280;64233;51.486;6.332;2023-07-13T05:32:38;101296.63;;;14.95;100.00
75640;BME280;64233;51.486;6.332;2023-07-13T05:35:04;101296.09;;;14.98;100.00
75640;BME280;64233;51.486;6.332;2023-07-13T05:37:30;101290.97;;;15.02;100.00
75640;BME280;64233;51.486;6.332;2023-07-13T05:39:55;101301.78;;;14.96;100.00
75640;BME280;64233;51.486;6.332;2023-07-13T05:42:21;101298.00;;;15.08;100.00
75640;BME280;64233;51.486;6.332;2023-07-13T05:44:46;101317.50;;;15.20;100.00
75640;BME280;64233;51.486;6.332;2023-07-13T05:47:11;101302.59;;;15.02;100.00
75640;BME280;64233;51.486;6.332;2023-07-13T05:49:39;101312.06;;;15.15;100.00
75640;BME280;64233;51.486;6.332;2023-07-13T05:52:04;101318.31;;;15.21;100.00
75640;BME280;64233;51.486;6.332;2023-07-13T05:54:30;101318.81;;;15.12;100.00
75640;BME280;64233;51.486;6.332;2023-07-13T05:56:55;101326.66;;;15.04;100.00
75640;BME280;64233;51.486;6.332;2023-07-13T05:59:20;101325.03;;;15.08;100.00
75640;BME280;64233;51.486;6.332;2023-07-13T06:01:46;101326.72;;;15.24;100.00
75640;BME280;64233;51.486;6.332;2023-07-13T06:04:11;101328.56;;;15.13;100.00
75640;BME280;64233;51.486;6.332;2023-07-13T06:06:36;101339.66;;;15.12;100.00
75640;BME280;64233;51.486;6.332;2023-07-13T06:09:02;101343.47;;;15.26;100.00
75640;BME280;64233;51.486;6.332;2023-07-13T06:11:28;101346.19;;;15.37;100.00
75640;BME280;64233;51.486;6.332;2023-07-13T06:13:55;101339.44;;;15.55;100.00
75640;BME280;64233;51.486;6.332;2023-07-13T06:16:21;101343.22;;;15.48;100.00
75640;BME280;64233;51.486;6.332;2023-07-13T06:18:47;101342.41;;;15.69;100.00
75640;BME280;64233;51.486;6.332;2023-07-13T06:21:17;101342.69;;;15.72;100.00
75640;BME280;64233;51.486;6.332;2023-07-13T06:23:44;101352.44;;;15.68;100.00
75640;BME280;64233;51.486;6.332;2023-07-13T06:26:11;101347.81;;;15.63;100.00
75640;BME280;64233;51.486;6.332;2023-07-13T06:28:37;101357.28;;;15.71;100.00
75640;BME280;64233;51.486;6.332;2023-07-13T06:31:05;101355.69;;;15.91;100.00
75640;BME280;64233;51.486;6.332;2023-07-13T06:33:31;101367.84;;;16.09;100.00
75640;BME280;64233;51.486;6.332;2023-07-13T06:35:56;101371.91;;;16.06;100.00
75640;BME280;64233;51.486;6.332;2023-07-13T06:38:21;101368.34;;;16.21;100.00
75640;BME280;64233;51.486;6.332;2023-07-13T06:40:47;101365.66;;;15.75;100.00
75640;BME280;64233;51.486;6.332;2023-07-13T06:43:12;101370.84;;;15.76;100.00
75640;BME280;64233;51.486;6.332;2023-07-13T06:45:44;101370.81;;;15.71;100.00
75640;BME280;64233;51.486;6.332;2023-07-13T06:48:15;101370.31;;;15.84;100.00
75640;BME280;64233;51.486;6.332;2023-07-13T06:50:42;101375.72;;;15.84;100.00
75640;BME280;64233;51.486;6.332;2023-07-13T06:53:07;101372.75;;;15.91;100.00
75640;BME280;64233;51.486;6.332;2023-07-13T06:55:33;101375.44;;;16.01;100.00
75640;BME280;64233;51.486;6.332;2023-07-13T06:57:58;101383.25;;;16.24;100.00
75640;BME280;64233;51.486;6.332;2023-07-13T07:00:23;101387.00;;;16.33;100.00
75640;BME280;64233;51.486;6.332;2023-07-13T07:02:48;101387.56;;;16.30;100.00
75640;BME280;64233;51.486;6.332;2023-07-13T07:05:14;101385.97;;;16.24;100.00
75640;BME280;64233;51.486;6.332;2023-07-13T07:07:39;101384.88;;;16.20;100.00
75640;BME280;64233;51.486;6.332;2023-07-13T07:10:05;101385.41;;;16.22;100.00
75640;BME280;64233;51.486;6.332;2023-07-13T07:12:30;101397.81;;;16.53;100.00
75640;BME280;64233;51.486;6.332;2023-07-13T07:14:55;101384.06;;;16.34;100.00
75640;BME280;64233;51.486;6.332;2023-07-13T07:17:21;101390.81;;;16.22;100.00
75640;BME280;64233;51.486;6.332;2023-07-13T07:19:46;101401.66;;;16.32;100.00
75640;BME280;64233;51.486;6.332;2023-07-13T07:22:11;101401.06;;;16.45;100.00
75640;BME280;64233;51.486;6.332;2023-07-13T07:24:36;101395.69;;;16.35;100.00
75640;BME280;64233;51.486;6.332;2023-07-13T07:27:02;101402.75;;;16.36;100.00
75640;BME280;64233;51.486;6.332;2023-07-13T07:29:27;101403.22;;;16.53;100.00
75640;BME280;64233;51.486;6.332;2023-07-13T07:31:53;101393.53;;;16.32;100.00
75640;BME280;64233;51.486;6.332;2023-07-13T07:34:18;101390.31;;;16.20;100.00
75640;BME280;64233;51.486;6.332;2023-07-13T07:36:44;101389.22;;;16.21;100.00
75640;BME280;64233;51.486;6.332;2023-07-13T07:39:09;101396.50;;;16.35;100.00
75640;BME280;64233;51.486;6.332;2023-07-13T07:41:34;101398.69;;;16.28;100.00
75640;BME280;64233;51.486;6.332;2023-07-13T07:43:59;101391.88;;;16.46;100.00
75640;BME280;64233;51.486;6.332;2023-07-13T07:46:25;101395.09;;;16.48;100.00
75640;BME280;64233;51.486;6.332;2023-07-13T07:48:50;101387.53;;;16.45;100.00
75640;BME280;64233;51.486;6.332;2023-07-13T07:51:15;101399.59;;;16.84;100.00
75640;BME280;64233;51.486;6.332;2023-07-13T07:53:41;101403.31;;;17.09;100.00
75640;BME280;64233;51.486;6.332;2023-07-13T07:56:06;101397.41;;;17.41;100.00
75640;BME280;64233;51.486;6.332;2023-07-13T07:58:31;101392.00;;;17.36;100.00
75640;BME280;64233;51.486;6.332;2023-07-13T08:01:06;101397.16;;;16.93;100.00
75640;BME280;64233;51.486;6.332;2023-07-13T08:03:31;101401.53;;;16.73;100.00
75640;BME280;64233;51.486;6.332;2023-07-13T08:05:57;101393.44;;;16.63;100.00
75640;BME280;64233;51.486;6.332;2023-07-13T08:08:23;101397.75;;;16.64;100.00
75640;BME280;64233;51.486;6.332;2023-07-13T08:10:49;101396.97;;;16.63;100.00
75640;BME280;64233;51.486;6.332;2023-07-13T08:13:14;101403.50;;;16.57;100.00
75640;BME280;64233;51.486;6.332;2023-07-13T08:15:39;101400.41;;;16.90;100.00
75640;BME280;64233;51.486;6.332;2023-07-13T08:18:05;101398.88;;;17.23;100.00
75640;BME280;64233;51.486;6.332;2023-07-13T08:20:31;101391.81;;;17.22;100.00
75640;BME280;64233;51.486;6.332;2023-07-13T08:22:56;101397.53;;;17.60;100.00
75640;BME280;64233;51.486;6.332;2023-07-13T08:25:21;101390.44;;;17.69;100.00
75640;BME280;64233;51.486;6.332;2023-07-13T08:27:48;101398.28;;;17.71;100.00
75640;BME280;64233;51.486;6.332;2023-07-13T08:30:13;101397.94;;;17.43;100.00
75640;BME280;64233;51.486;6.332;2023-07-13T08:32:38;101401.03;;;17.66;100.00
75640;BME280;64233;51.486;6.332;2023-07-13T08:35:05;101397.19;;;17.72;100.00
75640;BME280;64233;51.486;6.332;2023-07-13T08:37:30;101400.06;;;17.51;100.00
75640;BME280;64233;51.486;6.332;2023-07-13T08:39:55;101389.97;;;17.92;100.00
75640;BME280;64233;51.486;6.332;2023-07-13T08:48:09;101387.75;;;18.52;100.00
75640;BME280;64233;51.486;6.332;2023-07-13T08:50:46;101394.22;;;18.32;100.00
75640;BME280;64233;51.486;6.332;2023-07-13T08:53:15;101396.06;;;17.78;100.00
75640;BME280;64233;51.486;6.332;2023-07-13T08:55:41;101390.13;;;17.71;100.00
75640;BME280;64233;51.486;6.332;2023-07-13T08:58:15;101401.31;;;17.64;100.00
75640;BME280;64233;51.486;6.332;2023-07-13T09:01:13;101387.44;;;17.71;100.00
75640;BME280;64233;51.486;6.332;2023-07-13T09:03:50;101386.97;;;17.59;100.00
75640;BME280;64233;51.486;6.332;2023-07-13T09:06:23;101389.84;;;17.72;100.00
75640;BME280;64233;51.486;6.332;2023-07-13T09:09:02;101395.16;;;17.88;100.00
75640;BME280;64233;51.486;6.332;2023-07-13T09:16:49;101400.84;;;18.69;100.00
75640;BME280;64233;51.486;6.332;2023-07-13T09:19:21;101398.25;;;18.11;100.00
75640;BME280;64233;51.486;6.332;2023-07-13T09:21:50;101400.81;;;18.26;100.00
75640;BME280;64233;51.486;6.332;2023-07-13T09:24:38;101400.66;;;18.66;100.00
75640;BME280;64233;51.486;6.332;2023-07-13T09:27:17;101390.59;;;18.85;100.00
75640;BME280;64233;51.486;6.332;2023-07-13T09:32:32;101404.03;;;18.76;100.00
75640;BME280;64233;51.486;6.332;2023-07-13T09:34:58;101389.19;;;18.93;100.00
75640;BME280;64233;51.486;6.332;2023-07-13T09:37:29;101390.63;;;19.61;100.00
75640;BME280;64233;51.486;6.332;2023-07-13T09:39:58;101392.97;;;19.68;100.00
75640;BME280;64233;51.486;6.332;2023-07-13T09:42:25;101389.19;;;18.93;100.00
75640;BME280;64233;51.486;6.332;2023-07-13T09:44:52;101394.31;;;19.52;100.00
75640;BME280;64233;51.486;6.332;2023-07-13T09:47:20;101390.28;;;19.49;100.00
75640;BME280;64233;51.486;6.332;2023-07-13T09:49:54;101396.81;;;18.91;100.00
75640;BME280;64233;51.486;6.332;2023-07-13T09:52:20;101398.38;;;19.35;100.00
75640;BME280;64233;51.486;6.332;2023-07-13T09:54:48;101408.50;;;19.87;100.00
75640;BME280;64233;51.486;6.332;2023-07-13T09:57:19;101392.28;;;20.09;100.00
75640;BME280;64233;51.486;6.332;2023-07-13T09:59:49;101391.16;;;19.44;100.00
75640;BME280;64233;51.486;6.332;2023-07-13T10:02:27;101392.66;;;19.89;100.00
75640;BME280;64233;51.486;6.332;2023-07-13T10:05:14;101399.84;;;19.99;100.00
75640;BME280;64233;51.486;6.332;2023-07-13T10:07:44;101399.75;;;20.04;100.00
75640;BME280;64233;51.486;6.332;2023-07-13T10:10:21;101389.38;;;20.20;100.00
75640;BME280;64233;51.486;6.332;2023-07-13T10:12:48;101394.31;;;19.52;100.00
75640;BME280;64233;51.486;6.332;2023-07-13T10:15:18;101389.13;;;19.88;100.00
75640;BME280;64233;51.486;6.332;2023-07-13T10:17:45;101383.91;;;19.73;100.00
75640;BME280;64233;51.486;6.332;2023-07-13T10:20:10;101388.56;;;20.05;100.00
75640;BME280;64233;51.486;6.332;2023-07-13T10:22:44;101393.00;;;20.15;100.00
75640;BME280;64233;51.486;6.332;2023-07-13T10:25:20;101395.28;;;19.94;100.00
75640;BME280;64233;51.486;6.332;2023-07-13T10:27:49;101394.91;;;20.01;100.00
75640;BME280;64233;51.486;6.332;2023-07-13T10:30:20;101398.72;;;20.00;100.00
75640;BME280;64233;51.486;6.332;2023-07-13T10:32:48;101383.97;;;19.87;100.00
75640;BME280;64233;51.486;6.332;2023-07-13T10:35:16;101393.72;;;20.21;100.00
75640;BME280;64233;51.486;6.332;2023-07-13T10:37:49;101401.03;;;20.81;100.00
75640;BME280;64233;51.486;6.332;2023-07-13T10:40:22;101395.47;;;20.44;100.00
75640;BME280;64233;51.486;6.332;2023-07-13T10:42:50;101389.41;;;20.61;100.00
75640;BME280;64233;51.486;6.332;2023-07-13T10:45:20;101385.25;;;20.64;100.00
75640;BME280;64233;51.486;6.332;2023-07-13T10:47:47;101394.03;;;20.89;100.00
75640;BME280;64233;51.486;6.332;2023-07-13T10:50:17;101389.19;;;20.58;100.00
75640;BME280;64233;51.486;6.332;2023-07-13T10:52:53;101384.97;;;20.66;100.00
75640;BME280;64233;51.486;6.332;2023-07-13T10:55:54;101393.34;;;20.83;100.00
75640;BME280;64233;51.486;6.332;2023-07-13T10:58:29;101386.47;;;20.58;100.00
75640;BME280;64233;51.486;6.332;2023-07-13T11:03:32;101398.91;;;20.78;100.00
75640;BME280;64233;51.486;6.332;2023-07-13T11:06:12;101387.88;;;20.83;100.00
75640;BME280;64233;51.486;6.332;2023-07-13T11:13:55;101394.16;;;20.84;100.00
75640;BME280;64233;51.486;6.332;2023-07-13T11:21:26;101386.66;;;20.89;100.00
75640;BME280;64233;51.486;6.332;2023-07-13T11:24:01;101377.75;;;20.97;100.00
75640;BME280;64233;51.486;6.332;2023-07-13T11:29:32;101383.03;;;20.80;100.00
75640;BME280;64233;51.486;6.332;2023-07-13T11:32:21;101385.16;;;20.69;100.00
75640;BME280;64233;51.486;6.332;2023-07-13T11:34:47;101392.88;;;20.67;100.00
75640;BME280;64233;51.486;6.332;2023-07-13T11:37:16;101392.38;;;21.15;100.00
75640;BME280;64233;51.486;6.332;2023-07-13T11:39:43;101390.19;;;21.26;100.00
75640;BME280;64233;51.486;6.332;2023-07-13T11:42:12;101378.47;;;21.26;100.00
75640;BME280;64233;51.486;6.332;2023-07-13T11:44:43;101381.31;;;21.21;100.00
75640;BME280;64233;51.486;6.332;2023-07-13T11:47:14;101378.69;;;21.29;100.00
75640;BME280;64233;51.486;6.332;2023-07-13T11:49:48;101382.53;;;21.28;100.00
75640;BME280;64233;51.486;6.332;2023-07-13T11:52:19;101374.09;;;21.61;100.00
75640;BME280;64233;51.486;6.332;2023-07-13T11:54:52;101380.50;;;20.84;100.00
75640;BME280;64233;51.486;6.332;2023-07-13T11:57:27;101392.25;;;20.70;100.00
75640;BME280;64233;51.486;6.332;2023-07-13T11:59:54;101388.19;;;20.54;100.00
75640;BME280;64233;51.486;6.332;2023-07-13T12:02:31;101403.84;;;20.20;100.00
75640;BME280;64233;51.486;6.332;2023-07-13T12:04:58;101398.97;;;20.03;100.00
75640;BME280;64233;51.486;6.332;2023-07-13T12:07:28;101392.88;;;19.92;100.00
75640;BME280;64233;51.486;6.332;2023-07-13T12:10:00;101408.31;;;19.45;100.00
75640;BME280;64233;51.486;6.332;2023-07-13T12:12:28;101422.41;;;18.41;100.00
75640;BME280;64233;51.486;6.332;2023-07-13T12:14:54;101435.31;;;17.57;100.00
75640;BME280;64233;51.486;6.332;2023-07-13T12:17:23;101434.34;;;17.77;100.00
75640;BME280;64233;51.486;6.332;2023-07-13T12:19:50;101430.94;;;18.00;100.00
75640;BME280;64233;51.486;6.332;2023-07-13T12:22:17;101431.97;;;18.04;100.00
75640;BME280;64233;51.486;6.332;2023-07-13T12:24:44;101429.53;;;18.32;100.00
75640;BME280;64233;51.486;6.332;2023-07-13T12:27:25;101420.97;;;18.44;100.00
75640;BME280;64233;51.486;6.332;2023-07-13T12:30:15;101428.34;;;18.92;100.00
75640;BME280;64233;51.486;6.332;2023-07-13T12:32:57;101431.88;;;19.55;100.00
75640;BME280;64233;51.486;6.332;2023-07-13T12:35:23;101432.41;;;19.90;100.00
75640;BME280;64233;51.486;6.332;2023-07-13T12:37:51;101428.97;;;20.31;100.00
75640;BME280;64233;51.486;6.332;2023-07-13T12:40:20;101432.22;;;20.47;100.00
75640;BME280;64233;51.486;6.332;2023-07-13T12:42:47;101411.31;;;20.56;100.00
75640;BME280;64233;51.486;6.332;2023-07-13T12:47:56;101418.16;;;20.26;100.00
75640;BME280;64233;51.486;6.332;2023-07-13T12:50:39;101405.81;;;20.01;100.00
75640;BME280;64233;51.486;6.332;2023-07-13T12:53:12;101409.84;;;20.17;100.00
75640;BME280;64233;51.486;6.332;2023-07-13T12:55:46;101416.53;;;20.25;100.00
75640;BME280;64233;51.486;6.332;2023-07-13T12:58:30;101413.59;;;20.07;100.00
75640;BME280;64233;51.486;6.332;2023-07-13T13:00:58;101415.19;;;20.08;100.00
75640;BME280;64233;51.486;6.332;2023-07-13T13:03:32;101418.75;;;20.09;100.00
75640;BME280;64233;51.486;6.332;2023-07-13T13:08:48;101426.69;;;20.05;100.00
75640;BME280;64233;51.486;6.332;2023-07-13T13:11:18;101419.09;;;19.88;100.00
75640;BME280;64233;51.486;6.332;2023-07-13T13:13:44;101421.31;;;19.86;100.00
75640;BME280;64233;51.486;6.332;2023-07-13T13:16:32;101426.09;;;19.75;100.00
75640;BME280;64233;51.486;6.332;2023-07-13T13:19:10;101434.34;;;19.89;100.00
75640;BME280;64233;51.486;6.332;2023-07-13T13:21:37;101444.41;;;19.89;100.00
75640;BME280;64233;51.486;6.332;2023-07-13T13:24:10;101440.16;;;19.83;100.00